sensor_id;sensor_type;location;lat;lon;timestamp;temperature;humidity
8220;DHT22;4151;51.110;7.020;2023-05-23T00:02:16;15.90;99.90
8220;DHT22;4151;51.110;7.020;2023-05-23T00:04:42;15.80;99.90
8220;DHT22;4151;51.110;7.020;2023-05-23T00:07:08;15.70;99.90
8220;DHT22;4151;51.110;7.020;2023-05-23T00:09:34;15.60;99.90
8220;DHT22;4151;51.110;7.020;2023-05-23T00:12:00;15.50;99.90
8220;DHT22;4151;51.110;7.020;2023-05-23T00:14:26;15.40;99.90
8220;DHT22;4151;51.110;7.020;2023-05-23T00:16:52;15.30;99.90
8220;DHT22;4151;51.110;7.020;2023-05-23T00:19:17;15.20;99.90
8220;DHT22;4151;51.110;7.020;2023-05-23T00:21:45;15.20;99.90
8220;DHT22;4151;51.110;7.020;2023-05-23T00:24:13;15.20;99.90
8220;DHT22;4151;51.110;7.020;2023-05-23T00:26:38;15.30;99.90
8220;DHT22;4151;51.110;7.020;2023-05-23T00:29:04;15.40;99.90
8220;DHT22;4151;51.110;7.020;2023-05-23T00:31:30;15.40;99.90
8220;DHT22;4151;51.110;7.020;2023-05-23T00:33:56;15.50;99.90
8220;DHT22;4151;51.110;7.020;2023-05-23T00:36:21;15.60;99.90
8220;DHT22;4151;51.110;7.020;2023-05-23T00:38:47;15.60;99.90
8220;DHT22;4151;51.110;7.020;2023-05-23T00:41:14;15.70;99.90
8220;DHT22;4151;51.110;7.020;2023-05-23T00:43:39;15.70;99.90
8220;DHT22;4151;51.110;7.020;2023-05-23T00:46:05;15.70;99.90
8220;DHT22;4151;51.110;7.020;2023-05-23T00:48:31;15.80;99.90
8220;DHT22;4151;51.110;7.020;2023-05-23T00:50:57;15.90;99.90
8220;DHT22;4151;51.110;7.020;2023-05-23T00:53:23;15.90;99.90
8220;DHT22;4151;51.110;7.020;2023-05-23T00:55:49;15.90;99.90
8220;DHT22;4151;51.110;7.020;2023-05-23T00:58:15;15.90;99.90
8220;DHT22;4151;51.110;7.020;2023-05-23T01:00:42;16.00;99.90
8220;DHT22;4151;51.110;7.020;2023-05-23T01:03:09;16.10;99.90
8220;DHT22;4151;51.110;7.020;2023-05-23T01:05:44;16.20;99.90
8220;DHT22;4151;51.110;7.020;2023-05-23T01:08:10;16.10;99.90
8220;DHT22;4151;51.110;7.020;2023-05-23T01:10:36;16.20;99.90
8220;DHT22;4151;51.110;7.020;2023-05-23T01:18:36;16.20;99.90
8220;DHT22;4151;51.110;7.020;2023-05-23T01:21:10;16.10;99.90
8220;DHT22;4151;51.110;7.020;2023-05-23T01:26:47;16.10;99.90
8220;DHT22;4151;51.110;7.020;2023-05-23T01:29:23;16.10;99.90
8220;DHT22;4151;51.110;7.020;2023-05-23T01:31:53;16.20;99.90
8220;DHT22;4151;51.110;7.020;2023-05-23T01:34:20;16.20;99.90
8220;DHT22;4151;51.110;7.020;2023-05-23T01:36:49;16.10;99.90
8220;DHT22;4151;51.110;7.020;2023-05-23T01:39:15;16.20;99.90
8220;DHT22;4151;51.110;7.020;2023-05-23T01:41:40;16.20;99.90
8220;DHT22;4151;51.110;7.020;2023-05-23T01:44:06;16.30;99.90
8220;DHT22;4151;51.110;7.020;2023-05-23T01:46:33;16.30;99.90
8220;DHT22;4151;51.110;7.020;2023-05-23T01:49:02;16.30;99.90
8220;DHT22;4151;51.110;7.020;2023-05-23T01:51:28;16.20;99.90
8220;DHT22;4151;51.110;7.020;2023-05-23T01:53:55;16.00;99.90
8220;DHT22;4151;51.110;7.020;2023-05-23T01:56:21;16.00;99.90
8220;DHT22;4151;51.110;7.020;2023-05-23T01:58:47;16.00;99.90
8220;DHT22;4151;51.110;7.020;2023-05-23T02:01:13;16.00;99.90
8220;DHT22;4151;51.110;7.020;2023-05-23T02:03:38;16.00;99.90
8220;DHT22;4151;51.110;7.020;2023-05-23T02:06:04;15.90;99.90
8220;DHT22;4151;51.110;7.020;2023-05-23T02:08:30;15.80;99.90
8220;DHT22;4151;51.110;7.020;2023-05-23T02:10:55;15.80;99.90
8220;DHT22;4151;51.110;7.020;2023-05-23T02:13:21;15.80;99.90
8220;DHT22;4151;51.110;7.020;2023-05-23T02:15:46;15.80;99.90
8220;DHT22;4151;51.110;7.020;2023-05-23T02:18:12;15.70;99.90
8220;DHT22;4151;51.110;7.020;2023-05-23T02:20:38;15.70;99.90
8220;DHT22;4151;51.110;7.020;2023-05-23T02:23:04;15.80;99.90
8220;DHT22;4151;51.110;7.020;2023-05-23T02:25:30;15.80;99.90
8220;DHT22;4151;51.110;7.020;2023-05-23T02:27:56;15.80;99.90
8220;DHT22;4151;51.110;7.020;2023-05-23T02:30:21;15.80;99.90
8220;DHT22;4151;51.110;7.020;2023-05-23T02:32:47;15.70;99.90
8220;DHT22;4151;51.110;7.020;2023-05-23T02:35:12;15.80;99.90
8220;DHT22;4151;51.110;7.020;2023-05-23T02:37:38;15.70;99.90
8220;DHT22;4151;51.110;7.020;2023-05-23T02:40:04;15.70;99.90
8220;DHT22;4151;51.110;7.020;2023-05-23T02:42:32;15.80;99.90
8220;DHT22;4151;51.110;7.020;2023-05-23T02:44:58;15.70;99.90
8220;DHT22;4151;51.110;7.020;2023-05-23T02:47:23;15.70;99.90
8220;DHT22;4151;51.110;7.020;2023-05-23T02:49:49;15.70;99.90
8220;DHT22;4151;51.110;7.020;2023-05-23T02:52:14;15.70;99.90
8220;DHT22;4151;51.110;7.020;2023-05-23T02:54:40;15.70;99.90
8220;DHT22;4151;51.110;7.020;2023-05-23T02:57:05;15.60;99.90
8220;DHT22;4151;51.110;7.020;2023-05-23T02:59:31;15.60;99.90
8220;DHT22;4151;51.110;7.020;2023-05-23T03:01:56;15.60;99.90
8220;DHT22;4151;51.110;7.020;2023-05-23T03:04:22;15.60;99.90
8220;DHT22;4151;51.110;7.020;2023-05-23T03:06:48;15.60;99.90
8220;DHT22;4151;51.110;7.020;2023-05-23T03:09:14;15.70;99.90
8220;DHT22;4151;51.110;7.020;2023-05-23T03:11:41;15.80;99.90
8220;DHT22;4151;51.110;7.020;2023-05-23T03:14:07;15.80;99.90
8220;DHT22;4151;51.110;7.020;2023-05-23T03:16:32;15.70;99.90
8220;DHT22;4151;51.110;7.020;2023-05-23T03:18:58;15.70;99.90
8220;DHT22;4151;51.110;7.020;2023-05-23T03:21:24;15.70;99.90
8220;DHT22;4151;51.110;7.020;2023-05-23T03:23:50;15.70;99.90
8220;DHT22;4151;51.110;7.020;2023-05-23T03:26:16;15.70;99.90
8220;DHT22;4151;51.110;7.020;2023-05-23T03:28:41;15.70;99.90
8220;DHT22;4151;51.110;7.020;2023-05-23T03:31:07;15.60;99.90
8220;DHT22;4151;51.110;7.020;2023-05-23T03:33:32;15.60;99.90
8220;DHT22;4151;51.110;7.020;2023-05-23T03:35:58;15.50;99.90
8220;DHT22;4151;51.110;7.020;2023-05-23T03:38:23;15.50;99.90
8220;DHT22;4151;51.110;7.020;2023-05-23T03:40:49;15.50;99.90
8220;DHT22;4151;51.110;7.020;2023-05-23T03:43:14;15.50;99.90
8220;DHT22;4151;51.110;7.020;2023-05-23T03:45:40;15.40;99.90
8220;DHT22;4151;51.110;7.020;2023-05-23T03:48:06;15.40;99.90
8220;DHT22;4151;51.110;7.020;2023-05-23T03:50:31;15.30;99.90
8220;DHT22;4151;51.110;7.020;2023-05-23T03:52:57;15.20;99.90
8220;DHT22;4151;51.110;7.020;2023-05-23T03:55:23;15.30;99.90
8220;DHT22;4151;51.110;7.020;2023-05-23T03:57:50;15.30;99.90
8220;DHT22;4151;51.110;7.020;2023-05-23T04:00:19;15.30;99.90
8220;DHT22;4151;51.110;7.020;2023-05-23T04:02:45;15.40;99.90
8220;DHT22;4151;51.110;7.020;2023-05-23T04:05:11;15.40;99.90
8220;DHT22;4151;51.110;7.020;2023-05-23T04:07:37;15.40;99.90
8220;DHT22;4151;51.110;7.020;2023-05-23T04:10:04;15.40;99.90
8220;DHT22;4151;51.110;7.020;2023-05-23T04:12:29;15.40;99.90
8220;DHT22;4151;51.110;7.020;2023-05-23T04:14:56;15.50;99.90
8220;DHT22;4151;51.110;7.020;2023-05-23T04:17:22;15.50;99.90
8220;DHT22;4151;51.110;7.020;2023-05-23T04:19:48;15.50;99.90
8220;DHT22;4151;51.110;7.020;2023-05-23T04:22:14;15.50;99.90
8220;DHT22;4151;51.110;7.020;2023-05-23T04:24:39;15.50;99.90
8220;DHT22;4151;51.110;7.020;2023-05-23T04:27:05;15.50;99.90
8220;DHT22;4151;51.110;7.020;2023-05-23T04:29:32;15.50;99.90
8220;DHT22;4151;51.110;7.020;2023-05-23T04:31:58;15.50;99.90
8220;DHT22;4151;51.110;7.020;2023-05-23T04:34:25;15.50;99.90
8220;DHT22;4151;51.110;7.020;2023-05-23T04:36:51;15.40;99.90
8220;DHT22;4151;51.110;7.020;2023-05-23T04:49:46;14.90;99.90
8220;DHT22;4151;51.110;7.020;2023-05-23T04:52:12;14.90;99.90
8220;DHT22;4151;51.110;7.020;2023-05-23T04:54:37;14.90;99.90
8220;DHT22;4151;51.110;7.020;2023-05-23T04:57:09;14.90;99.90
8220;DHT22;4151;51.110;7.020;2023-05-23T04:59:34;15.00;99.90
8220;DHT22;4151;51.110;7.020;2023-05-23T05:02:00;15.00;99.90
8220;DHT22;4151;51.110;7.020;2023-05-23T05:04:25;15.00;99.90
8220;DHT22;4151;51.110;7.020;2023-05-23T05:06:51;15.00;99.90
8220;DHT22;4151;51.110;7.020;2023-05-23T05:09:17;15.10;99.90
8220;DHT22;4151;51.110;7.020;2023-05-23T05:11:43;15.10;99.90
8220;DHT22;4151;51.110;7.020;2023-05-23T05:14:08;15.10;99.90
8220;DHT22;4151;51.110;7.020;2023-05-23T05:16:34;15.20;99.90
8220;DHT22;4151;51.110;7.020;2023-05-23T05:19:00;15.10;99.90
8220;DHT22;4151;51.110;7.020;2023-05-23T05:21:26;15.20;99.90
8220;DHT22;4151;51.110;7.020;2023-05-23T05:23:51;15.20;99.90
8220;DHT22;4151;51.110;7.020;2023-05-23T05:26:17;15.20;99.90
8220;DHT22;4151;51.110;7.020;2023-05-23T05:28:42;15.30;99.90
8220;DHT22;4151;51.110;7.020;2023-05-23T05:31:08;15.20;99.90
8220;DHT22;4151;51.110;7.020;2023-05-23T05:33:34;15.30;99.90
8220;DHT22;4151;51.110;7.020;2023-05-23T05:36:01;15.30;99.90
8220;DHT22;4151;51.110;7.020;2023-05-23T05:38:27;15.20;99.90
8220;DHT22;4151;51.110;7.020;2023-05-23T05:40:52;15.30;99.90
8220;DHT22;4151;51.110;7.020;2023-05-23T05:43:18;15.40;99.90
8220;DHT22;4151;51.110;7.020;2023-05-23T05:45:43;15.50;99.90
8220;DHT22;4151;51.110;7.020;2023-05-23T05:48:09;15.40;99.90
8220;DHT22;4151;51.110;7.020;2023-05-23T05:50:36;15.40;99.90
8220;DHT22;4151;51.110;7.020;2023-05-23T05:53:01;15.50;99.90
8220;DHT22;4151;51.110;7.020;2023-05-23T05:55:28;15.50;99.90
8220;DHT22;4151;51.110;7.020;2023-05-23T05:57:53;15.50;99.90
8220;DHT22;4151;51.110;7.020;2023-05-23T06:00:19;15.50;99.90
8220;DHT22;4151;51.110;7.020;2023-05-23T06:02:46;15.50;99.90
8220;DHT22;4151;51.110;7.020;2023-05-23T06:05:12;15.30;99.90
8220;DHT22;4151;51.110;7.020;2023-05-23T06:07:39;15.30;99.90
8220;DHT22;4151;51.110;7.020;2023-05-23T06:10:05;15.30;99.90
8220;DHT22;4151;51.110;7.020;2023-05-23T06:12:32;15.30;99.90
8220;DHT22;4151;51.110;7.020;2023-05-23T06:14:57;15.30;99.90
8220;DHT22;4151;51.110;7.020;2023-05-23T06:17:23;15.40;99.90
8220;DHT22;4151;51.110;7.020;2023-05-23T06:19:48;15.40;99.90
8220;DHT22;4151;51.110;7.020;2023-05-23T06:22:14;15.50;99.90
8220;DHT22;4151;51.110;7.020;2023-05-23T06:24:40;15.50;99.90
8220;DHT22;4151;51.110;7.020;2023-05-23T06:27:05;15.50;99.90
8220;DHT22;4151;51.110;7.020;2023-05-23T06:29:31;15.50;99.90
8220;DHT22;4151;51.110;7.020;2023-05-23T06:31:56;15.50;99.90
8220;DHT22;4151;51.110;7.020;2023-05-23T06:34:22;15.50;99.90
8220;DHT22;4151;51.110;7.020;2023-05-23T06:36:48;15.60;99.90
8220;DHT22;4151;51.110;7.020;2023-05-23T06:39:14;15.60;99.90
8220;DHT22;4151;51.110;7.020;2023-05-23T06:41:39;15.70;99.90
8220;DHT22;4151;51.110;7.020;2023-05-23T06:44:05;15.80;99.90
8220;DHT22;4151;51.110;7.020;2023-05-23T06:46:31;15.90;99.90
8220;DHT22;4151;51.110;7.020;2023-05-23T06:48:57;15.90;99.90
8220;DHT22;4151;51.110;7.020;2023-05-23T06:51:22;15.90;99.90
8220;DHT22;4151;51.110;7.020;2023-05-23T06:53:48;15.80;99.90
8220;DHT22;4151;51.110;7.020;2023-05-23T06:56:14;15.70;99.90
8220;DHT22;4151;51.110;7.020;2023-05-23T06:58:39;15.70;99.90
8220;DHT22;4151;51.110;7.020;2023-05-23T07:01:05;15.70;99.90
8220;DHT22;4151;51.110;7.020;2023-05-23T07:03:31;15.70;99.90
8220;DHT22;4151;51.110;7.020;2023-05-23T07:05:57;15.70;99.90
8220;DHT22;4151;51.110;7.020;2023-05-23T07:08:23;15.80;99.90
8220;DHT22;4151;51.110;7.020;2023-05-23T07:10:48;15.80;99.90
8220;DHT22;4151;51.110;7.020;2023-05-23T07:13:14;16.00;99.90
8220;DHT22;4151;51.110;7.020;2023-05-23T07:15:39;16.10;99.90
8220;DHT22;4151;51.110;7.020;2023-05-23T07:18:05;16.00;99.90
8220;DHT22;4151;51.110;7.020;2023-05-23T07:20:34;16.00;99.90
8220;DHT22;4151;51.110;7.020;2023-05-23T07:23:00;16.10;99.90
8220;DHT22;4151;51.110;7.020;2023-05-23T07:25:25;16.10;99.90
8220;DHT22;4151;51.110;7.020;2023-05-23T07:27:52;16.00;99.90
8220;DHT22;4151;51.110;7.020;2023-05-23T07:30:19;15.90;99.90
8220;DHT22;4151;51.110;7.020;2023-05-23T07:32:47;15.80;99.90
8220;DHT22;4151;51.110;7.020;2023-05-23T07:35:13;15.80;99.90
8220;DHT22;4151;51.110;7.020;2023-05-23T07:37:39;15.80;99.90
8220;DHT22;4151;51.110;7.020;2023-05-23T07:40:05;15.80;99.90
8220;DHT22;4151;51.110;7.020;2023-05-23T07:42:31;15.80;99.90
8220;DHT22;4151;51.110;7.020;2023-05-23T07:44:56;15.80;99.90
8220;DHT22;4151;51.110;7.020;2023-05-23T07:47:22;15.70;99.90
8220;DHT22;4151;51.110;7.020;2023-05-23T07:49:49;15.70;99.90
8220;DHT22;4151;51.110;7.020;2023-05-23T07:52:16;15.70;99.90
8220;DHT22;4151;51.110;7.020;2023-05-23T07:54:41;15.80;99.90
8220;DHT22;4151;51.110;7.020;2023-05-23T07:57:08;15.90;99.90
8220;DHT22;4151;51.110;7.020;2023-05-23T07:59:33;16.00;99.90
8220;DHT22;4151;51.110;7.020;2023-05-23T08:02:00;16.10;99.90
8220;DHT22;4151;51.110;7.020;2023-05-23T08:04:26;16.10;99.90
8220;DHT22;4151;51.110;7.020;2023-05-23T08:06:52;16.10;99.90
8220;DHT22;4151;51.110;7.020;2023-05-23T08:09:18;16.10;99.90
8220;DHT22;4151;51.110;7.020;2023-05-23T08:11:43;16.00;99.90
8220;DHT22;4151;51.110;7.020;2023-05-23T08:14:09;15.90;99.90
8220;DHT22;4151;51.110;7.020;2023-05-23T08:16:34;15.90;99.90
8220;DHT22;4151;51.110;7.020;2023-05-23T08:19:01;15.80;99.90
8220;DHT22;4151;51.110;7.020;2023-05-23T08:21:26;15.70;99.90
8220;DHT22;4151;51.110;7.020;2023-05-23T08:23:52;15.60;99.90
8220;DHT22;4151;51.110;7.020;2023-05-23T08:26:17;15.60;99.90
8220;DHT22;4151;51.110;7.020;2023-05-23T08:28:43;15.60;99.90
8220;DHT22;4151;51.110;7.020;2023-05-23T08:31:08;15.60;99.90
8220;DHT22;4151;51.110;7.020;2023-05-23T08:33:34;15.60;99.90
8220;DHT22;4151;51.110;7.020;2023-05-23T08:35:59;15.50;99.90
8220;DHT22;4151;51.110;7.020;2023-05-23T08:38:25;15.50;99.90
8220;DHT22;4151;51.110;7.020;2023-05-23T08:40:51;15.40;99.90
8220;DHT22;4151;51.110;7.020;2023-05-23T08:43:18;15.40;99.90
8220;DHT22;4151;51.110;7.020;2023-05-23T08:45:44;15.60;99.90
8220;DHT22;4151;51.110;7.020;2023-05-23T08:48:12;15.70;99.90
8220;DHT22;4151;51.110;7.020;2023-05-23T08:50:41;15.90;99.90
8220;DHT22;4151;51.110;7.020;2023-05-23T08:53:08;15.90;99.90
8220;DHT22;4151;51.110;7.020;2023-05-23T08:55:34;16.00;99.90
8220;DHT22;4151;51.110;7.020;2023-05-23T08:58:02;16.00;99.90
8220;DHT22;4151;51.110;7.020;2023-05-23T09:00:28;15.90;99.90
8220;DHT22;4151;51.110;7.020;2023-05-23T09:02:54;15.60;99.90
8220;DHT22;4151;51.110;7.020;2023-05-23T09:05:20;15.50;99.90
8220;DHT22;4151;51.110;7.020;2023-05-23T09:07:47;15.40;99.90
8220;DHT22;4151;51.110;7.020;2023-05-23T09:10:14;15.40;99.90
8220;DHT22;4151;51.110;7.020;2023-05-23T09:12:41;15.30;99.90
8220;DHT22;4151;51.110;7.020;2023-05-23T09:15:08;15.30;99.90
8220;DHT22;4151;51.110;7.020;2023-05-23T09:17:35;15.30;99.90
8220;DHT22;4151;51.110;7.020;2023-05-23T09:20:01;15.30;99.90
8220;DHT22;4151;51.110;7.020;2023-05-23T09:22:27;15.40;99.90
8220;DHT22;4151;51.110;7.020;2023-05-23T09:24:54;15.30;99.90
8220;DHT22;4151;51.110;7.020;2023-05-23T09:27:20;15.30;99.90
8220;DHT22;4151;51.110;7.020;2023-05-23T09:29:45;15.30;99.90
8220;DHT22;4151;51.110;7.020;2023-05-23T09:32:18;15.30;99.90
8220;DHT22;4151;51.110;7.020;2023-05-23T09:34:57;15.20;99.90
8220;DHT22;4151;51.110;7.020;2023-05-23T09:37:42;15.10;99.90
8220;DHT22;4151;51.110;7.020;2023-05-23T09:40:14;14.90;99.90
8220;DHT22;4151;51.110;7.020;2023-05-23T09:42:44;14.90;99.90
8220;DHT22;4151;51.110;7.020;2023-05-23T09:45:11;15.00;99.90
8220;DHT22;4151;51.110;7.020;2023-05-23T09:47:37;14.80;99.90
8220;DHT22;4151;51.110;7.020;2023-05-23T09:50:03;14.80;99.90
8220;DHT22;4151;51.110;7.020;2023-05-23T09:52:38;14.70;99.90
8220;DHT22;4151;51.110;7.020;2023-05-23T09:55:04;14.70;99.90
8220;DHT22;4151;51.110;7.020;2023-05-23T09:57:36;14.60;99.90
8220;DHT22;4151;51.110;7.020;2023-05-23T10:00:04;14.60;99.90
8220;DHT22;4151;51.110;7.020;2023-05-23T10:02:52;14.60;99.90
8220;DHT22;4151;51.110;7.020;2023-05-23T10:05:34;14.80;99.90
8220;DHT22;4151;51.110;7.020;2023-05-23T10:08:04;15.40;99.90
8220;DHT22;4151;51.110;7.020;2023-05-23T10:10:32;15.80;99.90
8220;DHT22;4151;51.110;7.020;2023-05-23T10:13:02;16.10;99.90
8220;DHT22;4151;51.110;7.020;2023-05-23T10:15:34;16.20;99.90
8220;DHT22;4151;51.110;7.020;2023-05-23T10:20:38;16.70;99.90
8220;DHT22;4151;51.110;7.020;2023-05-23T10:23:04;17.30;99.90
8220;DHT22;4151;51.110;7.020;2023-05-23T10:25:30;17.30;99.90
8220;DHT22;4151;51.110;7.020;2023-05-23T10:27:57;17.10;99.90
8220;DHT22;4151;51.110;7.020;2023-05-23T10:30:27;17.00;99.90
8220;DHT22;4151;51.110;7.020;2023-05-23T10:32:54;17.30;99.90
8220;DHT22;4151;51.110;7.020;2023-05-23T10:35:46;17.50;99.90
8220;DHT22;4151;51.110;7.020;2023-05-23T10:38:30;18.10;99.90
8220;DHT22;4151;51.110;7.020;2023-05-23T10:43:48;18.40;99.90
8220;DHT22;4151;51.110;7.020;2023-05-23T10:46:18;18.50;99.90
8220;DHT22;4151;51.110;7.020;2023-05-23T10:56:43;16.20;99.90
8220;DHT22;4151;51.110;7.020;2023-05-23T10:59:19;15.70;99.90
8220;DHT22;4151;51.110;7.020;2023-05-23T11:01:45;15.40;99.90
8220;DHT22;4151;51.110;7.020;2023-05-23T11:04:11;15.50;99.90
8220;DHT22;4151;51.110;7.020;2023-05-23T11:06:39;15.50;99.90
8220;DHT22;4151;51.110;7.020;2023-05-23T11:09:15;15.60;99.90
8220;DHT22;4151;51.110;7.020;2023-05-23T11:14:15;15.10;99.90
8220;DHT22;4151;51.110;7.020;2023-05-23T11:16:42;14.80;99.90
8220;DHT22;4151;51.110;7.020;2023-05-23T11:21:45;14.60;99.90
8220;DHT22;4151;51.110;7.020;2023-05-23T11:24:11;14.60;99.90
8220;DHT22;4151;51.110;7.020;2023-05-23T11:26:37;14.80;99.90
8220;DHT22;4151;51.110;7.020;2023-05-23T11:29:07;14.90;99.90
8220;DHT22;4151;51.110;7.020;2023-05-23T11:31:37;15.20;99.90
8220;DHT22;4151;51.110;7.020;2023-05-23T11:34:07;15.90;99.90
8220;DHT22;4151;51.110;7.020;2023-05-23T11:36:34;16.60;99.90
8220;DHT22;4151;51.110;7.020;2023-05-23T11:39:03;17.20;99.90
8220;DHT22;4151;51.110;7.020;2023-05-23T11:41:33;17.70;99.90
8220;DHT22;4151;51.110;7.020;2023-05-23T11:44:00;17.90;99.90
8220;DHT22;4151;51.110;7.020;2023-05-23T11:46:26;18.40;99.90
8220;DHT22;4151;51.110;7.020;2023-05-23T11:48:52;19.30;99.90
8220;DHT22;4151;51.110;7.020;2023-05-23T11:51:17;20.30;99.90
8220;DHT22;4151;51.110;7.020;2023-05-23T11:53:45;20.80;99.90
8220;DHT22;4151;51.110;7.020;2023-05-23T11:56:11;21.20;99.90
8220;DHT22;4151;51.110;7.020;2023-05-23T11:58:39;21.20;99.90
8220;DHT22;4151;51.110;7.020;2023-05-23T12:01:07;20.70;99.90
8220;DHT22;4151;51.110;7.020;2023-05-23T12:03:33;20.20;99.90
8220;DHT22;4151;51.110;7.020;2023-05-23T12:05:59;19.40;99.90
8220;DHT22;4151;51.110;7.020;2023-05-23T12:08:26;18.10;99.90
8220;DHT22;4151;51.110;7.020;2023-05-23T12:10:59;17.60;99.90
8220;DHT22;4151;51.110;7.020;2023-05-23T12:13:27;17.50;99.90
8220;DHT22;4151;51.110;7.020;2023-05-23T12:15:54;17.50;99.90
8220;DHT22;4151;51.110;7.020;2023-05-23T12:18:20;17.50;99.90
8220;DHT22;4151;51.110;7.020;2023-05-23T12:20:48;17.60;99.90
8220;DHT22;4151;51.110;7.020;2023-05-23T12:23:22;17.70;99.90
8220;DHT22;4151;51.110;7.020;2023-05-23T12:25:55;17.70;99.90
8220;DHT22;4151;51.110;7.020;2023-05-23T12:28:36;17.70;99.90
8220;DHT22;4151;51.110;7.020;2023-05-23T12:31:10;17.70;99.90
8220;DHT22;4151;51.110;7.020;2023-05-23T12:33:43;18.20;99.90
8220;DHT22;4151;51.110;7.020;2023-05-23T12:36:10;18.50;99.90
8220;DHT22;4151;51.110;7.020;2023-05-23T12:38:36;18.60;99.90
8220;DHT22;4151;51.110;7.020;2023-05-23T12:41:15;18.50;99.90
8220;DHT22;4151;51.110;7.020;2023-05-23T12:43:49;18.40;99.90
8220;DHT22;4151;51.110;7.020;2023-05-23T12:46:16;18.40;99.90
8220;DHT22;4151;51.110;7.020;2023-05-23T12:48:41;18.20;99.90
8220;DHT22;4151;51.110;7.020;2023-05-23T12:51:07;18.40;99.90
8220;DHT22;4151;51.110;7.020;2023-05-23T12:53:32;18.70;99.90
8220;DHT22;4151;51.110;7.020;2023-05-23T12:55:58;18.40;99.90
8220;DHT22;4151;51.110;7.020;2023-05-23T12:58:23;18.20;99.90
8220;DHT22;4151;51.110;7.020;2023-05-23T13:00:49;18.30;99.90
8220;DHT22;4151;51.110;7.020;2023-05-23T13:03:15;18.50;99.90
8220;DHT22;4151;51.110;7.020;2023-05-23T13:05:41;18.60;99.90
8220;DHT22;4151;51.110;7.020;2023-05-23T13:08:06;18.90;99.90
8220;DHT22;4151;51.110;7.020;2023-05-23T13:10:32;19.70;99.90
8220;DHT22;4151;51.110;7.020;2023-05-23T13:12:58;20.30;99.90
8220;DHT22;4151;51.110;7.020;2023-05-23T13:15:23;20.50;99.90
8220;DHT22;4151;51.110;7.020;2023-05-23T13:17:49;20.70;99.90
8220;DHT22;4151;51.110;7.020;2023-05-23T13:20:15;21.10;99.90
8220;DHT22;4151;51.110;7.020;2023-05-23T13:22:40;21.50;99.90
8220;DHT22;4151;51.110;7.020;2023-05-23T13:25:07;22.00;99.90
8220;DHT22;4151;51.110;7.020;2023-05-23T13:27:33;22.20;99.90
8220;DHT22;4151;51.110;7.020;2023-05-23T13:29:59;22.60;99.90
8220;DHT22;4151;51.110;7.020;2023-05-23T13:32:25;22.30;99.90
8220;DHT22;4151;51.110;7.020;2023-05-23T13:34:50;21.70;99.90
8220;DHT22;4151;51.110;7.020;2023-05-23T13:37:16;21.20;99.90
8220;DHT22;4151;51.110;7.020;2023-05-23T13:39:42;20.90;99.90
8220;DHT22;4151;51.110;7.020;2023-05-23T13:42:07;21.80;99.90
8220;DHT22;4151;51.110;7.020;2023-05-23T13:44:33;23.20;99.90
8220;DHT22;4151;51.110;7.020;2023-05-23T13:47:09;23.70;99.90
8220;DHT22;4151;51.110;7.020;2023-05-23T13:49:35;23.00;99.90
8220;DHT22;4151;51.110;7.020;2023-05-23T13:52:00;22.20;99.90
8220;DHT22;4151;51.110;7.020;2023-05-23T13:54:26;21.20;99.90
8220;DHT22;4151;51.110;7.020;2023-05-23T13:56:51;20.90;99.90
8220;DHT22;4151;51.110;7.020;2023-05-23T13:59:17;20.60;99.90
8220;DHT22;4151;51.110;7.020;2023-05-23T14:01:49;20.60;99.90
8220;DHT22;4151;51.110;7.020;2023-05-23T14:04:14;22.00;99.90
8220;DHT22;4151;51.110;7.020;2023-05-23T14:06:40;23.00;99.90
8220;DHT22;4151;51.110;7.020;2023-05-23T14:09:05;24.30;99.90
8220;DHT22;4151;51.110;7.020;2023-05-23T14:11:32;25.00;99.90
8220;DHT22;4151;51.110;7.020;2023-05-23T14:13:57;25.50;99.90
8220;DHT22;4151;51.110;7.020;2023-05-23T14:16:23;24.70;99.90
8220;DHT22;4151;51.110;7.020;2023-05-23T14:18:49;23.00;99.90
8220;DHT22;4151;51.110;7.020;2023-05-23T14:21:14;22.30;99.90
8220;DHT22;4151;51.110;7.020;2023-05-23T14:23:40;21.40;99.90
8220;DHT22;4151;51.110;7.020;2023-05-23T14:26:05;21.00;99.90
8220;DHT22;4151;51.110;7.020;2023-05-23T14:28:31;21.00;99.90
8220;DHT22;4151;51.110;7.020;2023-05-23T14:30:57;21.10;99.90
8220;DHT22;4151;51.110;7.020;2023-05-23T14:33:23;20.90;99.90
8220;DHT22;4151;51.110;7.020;2023-05-23T14:35:49;20.80;99.90
8220;DHT22;4151;51.110;7.020;2023-05-23T14:38:15;20.90;99.90
8220;DHT22;4151;51.110;7.020;2023-05-23T14:40:41;21.70;99.90
8220;DHT22;4151;51.110;7.020;2023-05-23T14:43:07;22.40;99.90
8220;DHT22;4151;51.110;7.020;2023-05-23T14:45:32;23.90;99.90
8220;DHT22;4151;51.110;7.020;2023-05-23T14:47:58;25.60;99.90
8220;DHT22;4151;51.110;7.020;2023-05-23T14:50:25;27.10;99.90
8220;DHT22;4151;51.110;7.020;2023-05-23T14:52:50;27.40;98.20
8220;DHT22;4151;51.110;7.020;2023-05-23T14:55:16;26.20;97.50
8220;DHT22;4151;51.110;7.020;2023-05-23T14:57:42;25.40;99.20
8220;DHT22;4151;51.110;7.020;2023-05-23T15:00:09;23.70;99.90
8220;DHT22;4151;51.110;7.020;2023-05-23T15:02:36;23.10;99.90
8220;DHT22;4151;51.110;7.020;2023-05-23T15:05:03;24.20;99.90
8220;DHT22;4151;51.110;7.020;2023-05-23T15:07:29;24.30;99.90
8220;DHT22;4151;51.110;7.020;2023-05-23T15:09:54;24.20;99.90
8220;DHT22;4151;51.110;7.020;2023-05-23T15:12:20;24.20;99.90
8220;DHT22;4151;51.110;7.020;2023-05-23T15:14:46;25.10;99.90
8220;DHT22;4151;51.110;7.020;2023-05-23T15:17:12;25.80;99.90
8220;DHT22;4151;51.110;7.020;2023-05-23T15:19:43;24.60;99.80
8220;DHT22;4151;51.110;7.020;2023-05-23T15:22:08;23.40;99.90
8220;DHT22;4151;51.110;7.020;2023-05-23T15:24:34;22.20;99.90
8220;DHT22;4151;51.110;7.020;2023-05-23T15:27:00;21.20;99.90
8220;DHT22;4151;51.110;7.020;2023-05-23T15:29:25;21.50;99.90
8220;DHT22;4151;51.110;7.020;2023-05-23T15:31:51;22.00;99.90
8220;DHT22;4151;51.110;7.020;2023-05-23T15:34:18;22.10;99.90
8220;DHT22;4151;51.110;7.020;2023-05-23T15:36:43;21.70;99.90
8220;DHT22;4151;51.110;7.020;2023-05-23T15:39:10;21.10;99.90
8220;DHT22;4151;51.110;7.020;2023-05-23T15:41:36;20.90;99.90
8220;DHT22;4151;51.110;7.020;2023-05-23T15:44:02;20.50;99.90
8220;DHT22;4151;51.110;7.020;2023-05-23T15:46:27;20.40;99.90
8220;DHT22;4151;51.110;7.020;2023-05-23T15:48:53;20.10;99.90
8220;DHT22;4151;51.110;7.020;2023-05-23T15:51:26;20.10;99.90
8220;DHT22;4151;51.110;7.020;2023-05-23T15:53:52;19.90;99.90
8220;DHT22;4151;51.110;7.020;2023-05-23T15:56:18;20.20;99.90
8220;DHT22;4151;51.110;7.020;2023-05-23T15:58:43;20.20;99.90
8220;DHT22;4151;51.110;7.020;2023-05-23T16:01:09;20.20;99.90
8220;DHT22;4151;51.110;7.020;2023-05-23T16:03:35;20.40;99.90
8220;DHT22;4151;51.110;7.020;2023-05-23T16:06:01;20.00;99.90
8220;DHT22;4151;51.110;7.020;2023-05-23T16:08:27;19.80;99.90
8220;DHT22;4151;51.110;7.020;2023-05-23T16:10:52;20.30;99.90
8220;DHT22;4151;51.110;7.020;2023-05-23T16:13:18;20.40;99.90
8220;DHT22;4151;51.110;7.020;2023-05-23T16:15:43;19.90;99.90
8220;DHT22;4151;51.110;7.020;2023-05-23T16:18:09;19.70;99.90
8220;DHT22;4151;51.110;7.020;2023-05-23T16:20:35;19.20;99.90
8220;DHT22;4151;51.110;7.020;2023-05-23T16:23:01;19.00;99.90
8220;DHT22;4151;51.110;7.020;2023-05-23T16:25:26;18.90;99.90
8220;DHT22;4151;51.110;7.020;2023-05-23T16:27:52;18.90;99.90
8220;DHT22;4151;51.110;7.020;2023-05-23T16:30:18;18.70;99.90
8220;DHT22;4151;51.110;7.020;2023-05-23T16:32:43;18.70;99.90
8220;DHT22;4151;51.110;7.020;2023-05-23T16:35:09;18.70;99.90
8220;DHT22;4151;51.110;7.020;2023-05-23T16:37:38;19.20;99.90